sensor_id;sensor_type;location;lat;lon;timestamp;temperature;humidity
10314;DHT22;5202;49.138;10.090;2023-03-14T00:01:10;8.30;99.90
10314;DHT22;5202;49.138;10.090;2023-03-14T00:03:40;8.30;99.90
10314;DHT22;5202;49.138;10.090;2023-03-14T00:06:10;8.40;99.90
10314;DHT22;5202;49.138;10.090;2023-03-14T00:08:40;8.40;99.90
10314;DHT22;5202;49.138;10.090;2023-03-14T00:11:10;8.40;99.90
10314;DHT22;5202;49.138;10.090;2023-03-14T00:13:40;8.40;99.90
10314;DHT22;5202;49.138;10.090;2023-03-14T00:16:10;8.50;99.90
10314;DHT22;5202;49.138;10.090;2023-03-14T00:18:40;8.50;99.90
10314;DHT22;5202;49.138;10.090;2023-03-14T00:21:11;8.60;99.90
10314;DHT22;5202;49.138;10.090;2023-03-14T00:23:41;8.60;99.90
10314;DHT22;5202;49.138;10.090;2023-03-14T00:26:11;8.60;99.90
10314;DHT22;5202;49.138;10.090;2023-03-14T00:28:41;8.60;99.90
10314;DHT22;5202;49.138;10.090;2023-03-14T00:31:11;8.60;99.90
10314;DHT22;5202;49.138;10.090;2023-03-14T00:33:41;8.70;99.90
10314;DHT22;5202;49.138;10.090;2023-03-14T00:36:13;8.70;99.90
10314;DHT22;5202;49.138;10.090;2023-03-14T00:38:46;8.70;99.90
10314;DHT22;5202;49.138;10.090;2023-03-14T00:41:17;8.70;99.90
10314;DHT22;5202;49.138;10.090;2023-03-14T00:43:46;8.70;99.90
10314;DHT22;5202;49.138;10.090;2023-03-14T00:46:15;8.70;99.90
10314;DHT22;5202;49.138;10.090;2023-03-14T00:48:44;8.60;99.90
10314;DHT22;5202;49.138;10.090;2023-03-14T00:51:14;8.60;99.90
10314;DHT22;5202;49.138;10.090;2023-03-14T00:53:43;8.60;99.90
10314;DHT22;5202;49.138;10.090;2023-03-14T00:56:12;8.60;99.90
10314;DHT22;5202;49.138;10.090;2023-03-14T00:58:41;8.60;99.90
10314;DHT22;5202;49.138;10.090;2023-03-14T01:01:13;8.60;99.90
10314;DHT22;5202;49.138;10.090;2023-03-14T01:03:42;8.60;99.90
10314;DHT22;5202;49.138;10.090;2023-03-14T01:06:15;8.50;99.90
10314;DHT22;5202;49.138;10.090;2023-03-14T01:09:09;8.50;99.90
10314;DHT22;5202;49.138;10.090;2023-03-14T01:11:37;8.50;99.90
10314;DHT22;5202;49.138;10.090;2023-03-14T01:14:06;8.50;99.90
10314;DHT22;5202;49.138;10.090;2023-03-14T01:16:35;8.50;99.90
10314;DHT22;5202;49.138;10.090;2023-03-14T01:19:03;8.50;99.90
10314;DHT22;5202;49.138;10.090;2023-03-14T01:21:35;8.50;99.90
10314;DHT22;5202;49.138;10.090;2023-03-14T01:24:05;8.50;99.90
10314;DHT22;5202;49.138;10.090;2023-03-14T01:26:35;8.60;99.90
10314;DHT22;5202;49.138;10.090;2023-03-14T01:29:05;8.60;99.90
10314;DHT22;5202;49.138;10.090;2023-03-14T01:31:36;8.60;99.90
10314;DHT22;5202;49.138;10.090;2023-03-14T01:34:05;8.60;99.90
10314;DHT22;5202;49.138;10.090;2023-03-14T01:36:35;8.60;99.90
10314;DHT22;5202;49.138;10.090;2023-03-14T01:39:04;8.70;99.90
10314;DHT22;5202;49.138;10.090;2023-03-14T01:41:34;8.70;99.90
10314;DHT22;5202;49.138;10.090;2023-03-14T01:44:03;8.70;99.90
10314;DHT22;5202;49.138;10.090;2023-03-14T01:46:37;8.70;99.90
10314;DHT22;5202;49.138;10.090;2023-03-14T01:49:14;8.70;99.90
10314;DHT22;5202;49.138;10.090;2023-03-14T01:51:56;8.60;99.90
10314;DHT22;5202;49.138;10.090;2023-03-14T01:54:29;8.60;99.90
10314;DHT22;5202;49.138;10.090;2023-03-14T01:57:05;8.60;99.90
10314;DHT22;5202;49.138;10.090;2023-03-14T01:59:36;8.60;99.90
10314;DHT22;5202;49.138;10.090;2023-03-14T02:02:07;8.60;99.90
10314;DHT22;5202;49.138;10.090;2023-03-14T02:04:38;8.60;99.90
10314;DHT22;5202;49.138;10.090;2023-03-14T02:07:12;8.50;99.90
10314;DHT22;5202;49.138;10.090;2023-03-14T02:09:55;8.50;99.90
10314;DHT22;5202;49.138;10.090;2023-03-14T02:12:28;8.50;99.90
10314;DHT22;5202;49.138;10.090;2023-03-14T02:15:10;8.50;99.90
10314;DHT22;5202;49.138;10.090;2023-03-14T02:17:51;8.50;99.90
10314;DHT22;5202;49.138;10.090;2023-03-14T02:20:48;8.50;99.90
10314;DHT22;5202;49.138;10.090;2023-03-14T02:23:29;8.50;99.90
10314;DHT22;5202;49.138;10.090;2023-03-14T02:26:04;8.50;99.90
10314;DHT22;5202;49.138;10.090;2023-03-14T02:28:37;8.50;99.90
10314;DHT22;5202;49.138;10.090;2023-03-14T02:31:06;8.50;99.90
10314;DHT22;5202;49.138;10.090;2023-03-14T02:33:35;8.60;99.90
10314;DHT22;5202;49.138;10.090;2023-03-14T02:36:09;8.60;99.90
10314;DHT22;5202;49.138;10.090;2023-03-14T02:38:43;8.60;99.90
10314;DHT22;5202;49.138;10.090;2023-03-14T02:41:14;8.60;99.90
10314;DHT22;5202;49.138;10.090;2023-03-14T02:43:51;8.60;99.90
10314;DHT22;5202;49.138;10.090;2023-03-14T02:46:21;8.60;99.90
10314;DHT22;5202;49.138;10.090;2023-03-14T02:48:52;8.60;99.90
10314;DHT22;5202;49.138;10.090;2023-03-14T02:51:23;8.60;99.90
10314;DHT22;5202;49.138;10.090;2023-03-14T02:53:51;8.60;99.90
10314;DHT22;5202;49.138;10.090;2023-03-14T02:56:21;8.70;99.90
10314;DHT22;5202;49.138;10.090;2023-03-14T02:58:51;8.70;99.90
10314;DHT22;5202;49.138;10.090;2023-03-14T03:01:28;8.60;99.90
10314;DHT22;5202;49.138;10.090;2023-03-14T03:03:58;8.70;99.90
10314;DHT22;5202;49.138;10.090;2023-03-14T03:06:26;8.60;99.90
10314;DHT22;5202;49.138;10.090;2023-03-14T03:08:55;8.60;99.90
10314;DHT22;5202;49.138;10.090;2023-03-14T03:11:28;8.60;99.90
10314;DHT22;5202;49.138;10.090;2023-03-14T03:13:59;8.60;99.90
10314;DHT22;5202;49.138;10.090;2023-03-14T03:16:28;8.60;99.90
10314;DHT22;5202;49.138;10.090;2023-03-14T03:18:56;8.60;99.90
10314;DHT22;5202;49.138;10.090;2023-03-14T03:21:25;8.50;99.90
10314;DHT22;5202;49.138;10.090;2023-03-14T03:23:53;8.50;99.90
10314;DHT22;5202;49.138;10.090;2023-03-14T03:26:22;8.50;99.90
10314;DHT22;5202;49.138;10.090;2023-03-14T03:28:50;8.40;99.90
10314;DHT22;5202;49.138;10.090;2023-03-14T03:31:21;8.40;99.90
10314;DHT22;5202;49.138;10.090;2023-03-14T03:33:49;8.40;99.90
10314;DHT22;5202;49.138;10.090;2023-03-14T03:36:21;8.40;99.90
10314;DHT22;5202;49.138;10.090;2023-03-14T03:38:49;8.40;99.90
10314;DHT22;5202;49.138;10.090;2023-03-14T03:41:18;8.40;99.90
10314;DHT22;5202;49.138;10.090;2023-03-14T03:43:49;8.40;99.90
10314;DHT22;5202;49.138;10.090;2023-03-14T03:46:17;8.50;99.90
10314;DHT22;5202;49.138;10.090;2023-03-14T03:48:47;8.50;99.90
10314;DHT22;5202;49.138;10.090;2023-03-14T03:51:16;8.50;99.90
10314;DHT22;5202;49.138;10.090;2023-03-14T03:53:44;8.50;99.90
10314;DHT22;5202;49.138;10.090;2023-03-14T03:56:16;8.60;99.90
10314;DHT22;5202;49.138;10.090;2023-03-14T03:58:45;8.60;99.90
10314;DHT22;5202;49.138;10.090;2023-03-14T04:01:13;8.60;99.90
10314;DHT22;5202;49.138;10.090;2023-03-14T04:03:43;8.60;99.90
10314;DHT22;5202;49.138;10.090;2023-03-14T04:06:13;8.60;99.90
10314;DHT22;5202;49.138;10.090;2023-03-14T04:08:45;8.60;99.90
10314;DHT22;5202;49.138;10.090;2023-03-14T04:11:37;8.60;99.90
10314;DHT22;5202;49.138;10.090;2023-03-14T04:14:18;8.60;99.90
10314;DHT22;5202;49.138;10.090;2023-03-14T04:16:48;8.60;99.90
10314;DHT22;5202;49.138;10.090;2023-03-14T04:19:20;8.50;99.90
10314;DHT22;5202;49.138;10.090;2023-03-14T04:21:51;8.50;99.90
10314;DHT22;5202;49.138;10.090;2023-03-14T04:24:21;8.50;99.90
10314;DHT22;5202;49.138;10.090;2023-03-14T04:26:49;8.50;99.90
10314;DHT22;5202;49.138;10.090;2023-03-14T04:29:17;8.50;99.90
10314;DHT22;5202;49.138;10.090;2023-03-14T04:31:46;8.50;99.90
10314;DHT22;5202;49.138;10.090;2023-03-14T04:34:15;8.50;99.90
10314;DHT22;5202;49.138;10.090;2023-03-14T04:36:50;8.50;99.90
10314;DHT22;5202;49.138;10.090;2023-03-14T04:39:25;8.50;99.90
10314;DHT22;5202;49.138;10.090;2023-03-14T04:42:02;8.50;99.90
10314;DHT22;5202;49.138;10.090;2023-03-14T04:44:31;8.50;99.90
10314;DHT22;5202;49.138;10.090;2023-03-14T04:47:00;8.40;99.90
10314;DHT22;5202;49.138;10.090;2023-03-14T04:49:29;8.40;99.90
10314;DHT22;5202;49.138;10.090;2023-03-14T04:51:59;8.40;99.90
10314;DHT22;5202;49.138;10.090;2023-03-14T04:54:29;8.40;99.90
10314;DHT22;5202;49.138;10.090;2023-03-14T04:56:59;8.40;99.90
10314;DHT22;5202;49.138;10.090;2023-03-14T04:59:52;8.30;99.90
10314;DHT22;5202;49.138;10.090;2023-03-14T05:02:42;8.30;99.90
10314;DHT22;5202;49.138;10.090;2023-03-14T05:05:19;8.30;99.90
10314;DHT22;5202;49.138;10.090;2023-03-14T05:08:32;8.40;99.90
10314;DHT22;5202;49.138;10.090;2023-03-14T05:11:28;8.30;99.90
10314;DHT22;5202;49.138;10.090;2023-03-14T05:14:08;8.30;99.90
10314;DHT22;5202;49.138;10.090;2023-03-14T05:16:54;8.20;99.90
10314;DHT22;5202;49.138;10.090;2023-03-14T05:19:37;8.20;99.90
10314;DHT22;5202;49.138;10.090;2023-03-14T05:22:12;8.20;99.90
10314;DHT22;5202;49.138;10.090;2023-03-14T05:25:00;8.20;99.90
10314;DHT22;5202;49.138;10.090;2023-03-14T05:27:55;8.20;99.90
10314;DHT22;5202;49.138;10.090;2023-03-14T05:31:06;8.20;99.90
10314;DHT22;5202;49.138;10.090;2023-03-14T05:33:45;8.10;99.90
10314;DHT22;5202;49.138;10.090;2023-03-14T05:36:33;8.10;99.90
10314;DHT22;5202;49.138;10.090;2023-03-14T05:39:04;8.10;99.90
10314;DHT22;5202;49.138;10.090;2023-03-14T05:42:03;8.10;99.90
10314;DHT22;5202;49.138;10.090;2023-03-14T05:44:43;8.10;99.90
10314;DHT22;5202;49.138;10.090;2023-03-14T05:47:34;8.10;99.90
10314;DHT22;5202;49.138;10.090;2023-03-14T05:50:17;8.10;99.90
10314;DHT22;5202;49.138;10.090;2023-03-14T05:53:12;8.10;99.90
10314;DHT22;5202;49.138;10.090;2023-03-14T05:55:42;8.10;99.90
10314;DHT22;5202;49.138;10.090;2023-03-14T05:58:47;8.10;99.90
10314;DHT22;5202;49.138;10.090;2023-03-14T06:01:27;8.10;99.90
10314;DHT22;5202;49.138;10.090;2023-03-14T06:04:16;8.10;99.90
10314;DHT22;5202;49.138;10.090;2023-03-14T06:06:48;8.10;99.90
10314;DHT22;5202;49.138;10.090;2023-03-14T06:09:17;8.10;99.90
10314;DHT22;5202;49.138;10.090;2023-03-14T06:11:46;8.10;99.90
10314;DHT22;5202;49.138;10.090;2023-03-14T06:14:16;8.10;99.90
10314;DHT22;5202;49.138;10.090;2023-03-14T06:16:47;8.10;99.90
10314;DHT22;5202;49.138;10.090;2023-03-14T06:19:17;8.10;99.90
10314;DHT22;5202;49.138;10.090;2023-03-14T06:21:46;8.10;99.90
10314;DHT22;5202;49.138;10.090;2023-03-14T06:24:14;8.10;99.90
10314;DHT22;5202;49.138;10.090;2023-03-14T06:26:46;8.10;99.90
10314;DHT22;5202;49.138;10.090;2023-03-14T06:29:16;8.10;99.90
10314;DHT22;5202;49.138;10.090;2023-03-14T06:31:45;8.20;99.90
10314;DHT22;5202;49.138;10.090;2023-03-14T06:34:15;8.10;99.90
10314;DHT22;5202;49.138;10.090;2023-03-14T06:36:43;8.10;99.90
10314;DHT22;5202;49.138;10.090;2023-03-14T06:39:12;8.10;99.90
10314;DHT22;5202;49.138;10.090;2023-03-14T06:41:43;8.10;99.90
10314;DHT22;5202;49.138;10.090;2023-03-14T06:44:12;8.10;99.90
10314;DHT22;5202;49.138;10.090;2023-03-14T06:46:42;8.10;99.90
10314;DHT22;5202;49.138;10.090;2023-03-14T06:49:11;8.20;99.90
10314;DHT22;5202;49.138;10.090;2023-03-14T06:51:39;8.20;99.90
10314;DHT22;5202;49.138;10.090;2023-03-14T06:54:09;8.20;99.90
10314;DHT22;5202;49.138;10.090;2023-03-14T06:56:38;8.20;99.90
10314;DHT22;5202;49.138;10.090;2023-03-14T06:59:06;8.20;99.90
10314;DHT22;5202;49.138;10.090;2023-03-14T07:01:35;8.20;99.90
10314;DHT22;5202;49.138;10.090;2023-03-14T07:04:13;8.20;99.90
10314;DHT22;5202;49.138;10.090;2023-03-14T07:06:45;8.20;99.90
10314;DHT22;5202;49.138;10.090;2023-03-14T07:09:14;8.30;99.90
10314;DHT22;5202;49.138;10.090;2023-03-14T07:11:49;8.30;99.90
10314;DHT22;5202;49.138;10.090;2023-03-14T07:14:18;8.40;99.90
10314;DHT22;5202;49.138;10.090;2023-03-14T07:16:48;8.40;99.90
10314;DHT22;5202;49.138;10.090;2023-03-14T07:19:18;8.40;99.90
10314;DHT22;5202;49.138;10.090;2023-03-14T07:21:46;8.40;99.90
10314;DHT22;5202;49.138;10.090;2023-03-14T07:24:19;8.40;99.90
10314;DHT22;5202;49.138;10.090;2023-03-14T07:26:49;8.50;99.90
10314;DHT22;5202;49.138;10.090;2023-03-14T07:29:17;8.60;99.90
10314;DHT22;5202;49.138;10.090;2023-03-14T07:31:46;8.60;99.90
10314;DHT22;5202;49.138;10.090;2023-03-14T07:34:19;8.60;99.90
10314;DHT22;5202;49.138;10.090;2023-03-14T07:36:48;8.60;99.90
10314;DHT22;5202;49.138;10.090;2023-03-14T07:39:16;8.60;99.90
10314;DHT22;5202;49.138;10.090;2023-03-14T07:41:52;8.70;99.90
10314;DHT22;5202;49.138;10.090;2023-03-14T07:44:38;8.70;99.90
10314;DHT22;5202;49.138;10.090;2023-03-14T07:47:07;8.80;99.90
10314;DHT22;5202;49.138;10.090;2023-03-14T07:49:38;9.00;99.90
10314;DHT22;5202;49.138;10.090;2023-03-14T07:52:06;9.10;99.90
10314;DHT22;5202;49.138;10.090;2023-03-14T07:54:35;9.10;99.90
10314;DHT22;5202;49.138;10.090;2023-03-14T07:57:03;9.20;99.90
10314;DHT22;5202;49.138;10.090;2023-03-14T07:59:31;9.20;99.90
10314;DHT22;5202;49.138;10.090;2023-03-14T08:01:59;9.30;99.90
10314;DHT22;5202;49.138;10.090;2023-03-14T08:04:28;9.30;99.90
10314;DHT22;5202;49.138;10.090;2023-03-14T08:06:58;9.30;99.90
10314;DHT22;5202;49.138;10.090;2023-03-14T08:09:26;9.40;99.90
10314;DHT22;5202;49.138;10.090;2023-03-14T08:11:54;9.40;99.90
10314;DHT22;5202;49.138;10.090;2023-03-14T08:14:24;9.50;99.90
10314;DHT22;5202;49.138;10.090;2023-03-14T08:16:52;9.50;99.90
10314;DHT22;5202;49.138;10.090;2023-03-14T08:19:21;9.50;99.90
10314;DHT22;5202;49.138;10.090;2023-03-14T08:21:49;9.50;99.90
10314;DHT22;5202;49.138;10.090;2023-03-14T08:24:19;9.60;99.90
10314;DHT22;5202;49.138;10.090;2023-03-14T08:26:47;9.60;99.90
10314;DHT22;5202;49.138;10.090;2023-03-14T08:29:15;9.60;99.90
10314;DHT22;5202;49.138;10.090;2023-03-14T08:31:44;9.70;99.90
10314;DHT22;5202;49.138;10.090;2023-03-14T08:34:12;9.70;99.90
10314;DHT22;5202;49.138;10.090;2023-03-14T08:36:40;9.70;99.90
10314;DHT22;5202;49.138;10.090;2023-03-14T08:39:09;9.80;99.90
10314;DHT22;5202;49.138;10.090;2023-03-14T08:41:38;9.80;99.90
10314;DHT22;5202;49.138;10.090;2023-03-14T08:44:10;9.80;99.90
10314;DHT22;5202;49.138;10.090;2023-03-14T08:46:39;9.90;99.90
10314;DHT22;5202;49.138;10.090;2023-03-14T08:49:07;10.00;99.90
10314;DHT22;5202;49.138;10.090;2023-03-14T08:51:35;10.10;99.90
10314;DHT22;5202;49.138;10.090;2023-03-14T08:54:04;10.20;99.90
10314;DHT22;5202;49.138;10.090;2023-03-14T08:56:32;10.40;99.90
10314;DHT22;5202;49.138;10.090;2023-03-14T08:59:02;10.40;99.90
10314;DHT22;5202;49.138;10.090;2023-03-14T09:01:32;10.40;99.90
10314;DHT22;5202;49.138;10.090;2023-03-14T09:04:05;10.40;99.90
10314;DHT22;5202;49.138;10.090;2023-03-14T09:06:58;10.40;99.90
10314;DHT22;5202;49.138;10.090;2023-03-14T09:09:35;10.40;99.90
10314;DHT22;5202;49.138;10.090;2023-03-14T09:12:08;10.40;99.90
10314;DHT22;5202;49.138;10.090;2023-03-14T09:14:38;10.50;99.90
10314;DHT22;5202;49.138;10.090;2023-03-14T09:17:06;10.40;99.90
10314;DHT22;5202;49.138;10.090;2023-03-14T09:19:34;10.40;99.90
10314;DHT22;5202;49.138;10.090;2023-03-14T09:22:03;10.40;99.90
10314;DHT22;5202;49.138;10.090;2023-03-14T09:24:31;10.50;99.90
10314;DHT22;5202;49.138;10.090;2023-03-14T09:26:59;10.60;99.90
10314;DHT22;5202;49.138;10.090;2023-03-14T09:29:28;10.60;99.90
10314;DHT22;5202;49.138;10.090;2023-03-14T09:31:59;10.60;99.90
10314;DHT22;5202;49.138;10.090;2023-03-14T09:34:28;10.60;99.90
10314;DHT22;5202;49.138;10.090;2023-03-14T09:37:00;10.60;99.90
10314;DHT22;5202;49.138;10.090;2023-03-14T09:39:28;10.60;99.90
10314;DHT22;5202;49.138;10.090;2023-03-14T09:41:57;10.60;99.90
10314;DHT22;5202;49.138;10.090;2023-03-14T09:44:29;10.70;99.90
10314;DHT22;5202;49.138;10.090;2023-03-14T09:47:03;10.70;99.90
10314;DHT22;5202;49.138;10.090;2023-03-14T09:49:35;10.70;99.90
10314;DHT22;5202;49.138;10.090;2023-03-14T09:52:10;10.70;99.90
10314;DHT22;5202;49.138;10.090;2023-03-14T09:54:43;10.80;99.90
10314;DHT22;5202;49.138;10.090;2023-03-14T09:57:15;10.80;99.90
10314;DHT22;5202;49.138;10.090;2023-03-14T09:59:47;10.90;99.90
10314;DHT22;5202;49.138;10.090;2023-03-14T10:02:27;11.00;99.90
10314;DHT22;5202;49.138;10.090;2023-03-14T10:05:01;11.00;99.90
10314;DHT22;5202;49.138;10.090;2023-03-14T10:07:35;11.10;99.90
10314;DHT22;5202;49.138;10.090;2023-03-14T10:10:10;11.00;99.90
10314;DHT22;5202;49.138;10.090;2023-03-14T10:12:39;11.00;99.90
10314;DHT22;5202;49.138;10.090;2023-03-14T10:15:10;11.10;99.90
10314;DHT22;5202;49.138;10.090;2023-03-14T10:17:44;11.10;99.90
10314;DHT22;5202;49.138;10.090;2023-03-14T10:20:36;11.20;99.90
10314;DHT22;5202;49.138;10.090;2023-03-14T10:23:17;11.20;99.90
10314;DHT22;5202;49.138;10.090;2023-03-14T10:26:00;11.30;99.90
10314;DHT22;5202;49.138;10.090;2023-03-14T10:28:39;11.40;99.90
10314;DHT22;5202;49.138;10.090;2023-03-14T10:31:08;11.30;99.90
10314;DHT22;5202;49.138;10.090;2023-03-14T10:33:38;11.20;99.90
10314;DHT22;5202;49.138;10.090;2023-03-14T10:36:17;11.10;99.90
10314;DHT22;5202;49.138;10.090;2023-03-14T10:38:57;10.90;99.90
10314;DHT22;5202;49.138;10.090;2023-03-14T10:41:47;10.80;99.90
10314;DHT22;5202;49.138;10.090;2023-03-14T10:44:22;10.60;99.90
10314;DHT22;5202;49.138;10.090;2023-03-14T10:46:57;10.60;99.90
10314;DHT22;5202;49.138;10.090;2023-03-14T10:49:31;10.80;99.90
10314;DHT22;5202;49.138;10.090;2023-03-14T10:52:14;10.90;99.90
10314;DHT22;5202;49.138;10.090;2023-03-14T10:55:08;11.10;99.90
10314;DHT22;5202;49.138;10.090;2023-03-14T10:57:38;11.20;99.90
10314;DHT22;5202;49.138;10.090;2023-03-14T11:00:14;11.20;99.90
10314;DHT22;5202;49.138;10.090;2023-03-14T11:02:54;11.10;99.90
10314;DHT22;5202;49.138;10.090;2023-03-14T11:05:35;11.20;99.90
10314;DHT22;5202;49.138;10.090;2023-03-14T11:08:12;11.40;99.90
10314;DHT22;5202;49.138;10.090;2023-03-14T11:10:50;11.50;99.90
10314;DHT22;5202;49.138;10.090;2023-03-14T11:13:24;11.70;99.90
10314;DHT22;5202;49.138;10.090;2023-03-14T11:15:59;11.80;99.20
10314;DHT22;5202;49.138;10.090;2023-03-14T11:18:48;12.10;98.60
10314;DHT22;5202;49.138;10.090;2023-03-14T11:21:26;12.10;97.90
10314;DHT22;5202;49.138;10.090;2023-03-14T11:24:10;12.00;97.90
10314;DHT22;5202;49.138;10.090;2023-03-14T11:26:48;12.00;98.10
10314;DHT22;5202;49.138;10.090;2023-03-14T11:29:22;12.00;97.30
10314;DHT22;5202;49.138;10.090;2023-03-14T11:31:58;11.90;96.70
10314;DHT22;5202;49.138;10.090;2023-03-14T11:34:36;11.80;97.10
10314;DHT22;5202;49.138;10.090;2023-03-14T11:37:15;11.80;97.60
10314;DHT22;5202;49.138;10.090;2023-03-14T11:39:54;11.80;97.60
10314;DHT22;5202;49.138;10.090;2023-03-14T11:42:26;11.90;96.60
10314;DHT22;5202;49.138;10.090;2023-03-14T11:44:57;12.00;96.80
10314;DHT22;5202;49.138;10.090;2023-03-14T11:47:31;12.10;96.40
10314;DHT22;5202;49.138;10.090;2023-03-14T11:50:05;12.10;96.30
10314;DHT22;5202;49.138;10.090;2023-03-14T11:52:42;12.00;96.20
10314;DHT22;5202;49.138;10.090;2023-03-14T11:55:19;11.90;96.40
10314;DHT22;5202;49.138;10.090;2023-03-14T11:57:51;11.70;97.70
10314;DHT22;5202;49.138;10.090;2023-03-14T12:00:22;11.50;99.90
10314;DHT22;5202;49.138;10.090;2023-03-14T12:02:57;11.30;99.90
10314;DHT22;5202;49.138;10.090;2023-03-14T12:05:39;11.00;99.90
10314;DHT22;5202;49.138;10.090;2023-03-14T12:08:38;10.70;99.90
10314;DHT22;5202;49.138;10.090;2023-03-14T12:11:16;10.40;99.90
10314;DHT22;5202;49.138;10.090;2023-03-14T12:13:49;10.20;99.90
10314;DHT22;5202;49.138;10.090;2023-03-14T12:16:34;10.00;99.90
10314;DHT22;5202;49.138;10.090;2023-03-14T12:19:28;9.80;99.90
10314;DHT22;5202;49.138;10.090;2023-03-14T12:22:27;9.70;99.90
10314;DHT22;5202;49.138;10.090;2023-03-14T12:25:04;9.70;99.90
10314;DHT22;5202;49.138;10.090;2023-03-14T12:30:41;9.70;99.90
10314;DHT22;5202;49.138;10.090;2023-03-14T12:33:21;9.60;99.90
10314;DHT22;5202;49.138;10.090;2023-03-14T12:35:59;9.60;99.90
10314;DHT22;5202;49.138;10.090;2023-03-14T12:41:43;9.30;99.90
10314;DHT22;5202;49.138;10.090;2023-03-14T12:44:40;9.20;99.90
10314;DHT22;5202;49.138;10.090;2023-03-14T12:50:35;9.00;99.90
10314;DHT22;5202;49.138;10.090;2023-03-14T12:56:27;8.90;99.90
10314;DHT22;5202;49.138;10.090;2023-03-14T12:59:16;8.90;99.90
10314;DHT22;5202;49.138;10.090;2023-03-14T13:01:55;8.90;99.90
10314;DHT22;5202;49.138;10.090;2023-03-14T13:04:29;8.90;99.90
10314;DHT22;5202;49.138;10.090;2023-03-14T13:07:12;8.90;99.90
10314;DHT22;5202;49.138;10.090;2023-03-14T13:09:53;8.90;99.90
10314;DHT22;5202;49.138;10.090;2023-03-14T13:12:27;8.90;99.90
10314;DHT22;5202;49.138;10.090;2023-03-14T13:15:00;8.90;99.90
10314;DHT22;5202;49.138;10.090;2023-03-14T13:17:32;8.80;99.90
10314;DHT22;5202;49.138;10.090;2023-03-14T13:20:11;8.90;99.90
10314;DHT22;5202;49.138;10.090;2023-03-14T13:22:46;8.80;99.90
10314;DHT22;5202;49.138;10.090;2023-03-14T13:25:15;8.80;99.90
10314;DHT22;5202;49.138;10.090;2023-03-14T13:27:45;8.80;99.90
10314;DHT22;5202;49.138;10.090;2023-03-14T13:30:22;8.70;99.90
10314;DHT22;5202;49.138;10.090;2023-03-14T13:32:52;8.70;99.90
10314;DHT22;5202;49.138;10.090;2023-03-14T13:35:24;8.50;99.90
10314;DHT22;5202;49.138;10.090;2023-03-14T13:37:59;8.20;99.90
10314;DHT22;5202;49.138;10.090;2023-03-14T13:40:45;8.00;99.90
10314;DHT22;5202;49.138;10.090;2023-03-14T13:43:17;7.80;99.90
10314;DHT22;5202;49.138;10.090;2023-03-14T13:45:51;7.70;99.90
10314;DHT22;5202;49.138;10.090;2023-03-14T13:48:22;7.40;99.90
10314;DHT22;5202;49.138;10.090;2023-03-14T13:50:56;7.20;99.90
10314;DHT22;5202;49.138;10.090;2023-03-14T13:53:27;7.10;99.90
10314;DHT22;5202;49.138;10.090;2023-03-14T13:55:56;7.00;99.90
10314;DHT22;5202;49.138;10.090;2023-03-14T13:58:26;7.00;99.90
10314;DHT22;5202;49.138;10.090;2023-03-14T14:01:02;6.90;99.90
10314;DHT22;5202;49.138;10.090;2023-03-14T14:03:36;6.90;99.90
10314;DHT22;5202;49.138;10.090;2023-03-14T14:06:10;6.80;99.90
10314;DHT22;5202;49.138;10.090;2023-03-14T14:08:45;6.80;99.90
10314;DHT22;5202;49.138;10.090;2023-03-14T14:11:25;6.80;99.90
10314;DHT22;5202;49.138;10.090;2023-03-14T14:14:17;6.80;99.90
10314;DHT22;5202;49.138;10.090;2023-03-14T14:16:50;6.80;99.90
10314;DHT22;5202;49.138;10.090;2023-03-14T14:19:22;6.80;99.90
10314;DHT22;5202;49.138;10.090;2023-03-14T14:21:51;6.80;99.90
10314;DHT22;5202;49.138;10.090;2023-03-14T14:24:21;6.90;99.90
10314;DHT22;5202;49.138;10.090;2023-03-14T14:26:51;6.90;99.90
10314;DHT22;5202;49.138;10.090;2023-03-14T14:29:26;6.90;99.90
10314;DHT22;5202;49.138;10.090;2023-03-14T14:32:02;6.90;99.90
10314;DHT22;5202;49.138;10.090;2023-03-14T14:34:40;7.00;99.90
10314;DHT22;5202;49.138;10.090;2023-03-14T14:37:19;7.00;99.90
10314;DHT22;5202;49.138;10.090;2023-03-14T14:39:49;7.10;99.90
10314;DHT22;5202;49.138;10.090;2023-03-14T14:42:20;7.10;99.90
10314;DHT22;5202;49.138;10.090;2023-03-14T14:44:50;7.10;99.40
10314;DHT22;5202;49.138;10.090;2023-03-14T14:47:22;7.20;99.20
10314;DHT22;5202;49.138;10.090;2023-03-14T14:49:53;7.30;98.70
10314;DHT22;5202;49.138;10.090;2023-03-14T14:52:33;7.30;97.40
10314;DHT22;5202;49.138;10.090;2023-03-14T14:55:12;7.30;97.10
10314;DHT22;5202;49.138;10.090;2023-03-14T14:57:50;7.30;95.00
10314;DHT22;5202;49.138;10.090;2023-03-14T15:00:20;7.30;93.60
10314;DHT22;5202;49.138;10.090;2023-03-14T15:02:52;7.30;93.20
10314;DHT22;5202;49.138;10.090;2023-03-14T15:05:24;7.20;92.50
10314;DHT22;5202;49.138;10.090;2023-03-14T15:07:54;7.20;92.40
10314;DHT22;5202;49.138;10.090;2023-03-14T15:10:25;7.10;93.00
10314;DHT22;5202;49.138;10.090;2023-03-14T15:12:53;7.10;93.30
10314;DHT22;5202;49.138;10.090;2023-03-14T15:15:21;7.10;93.10
10314;DHT22;5202;49.138;10.090;2023-03-14T15:17:51;7.10;93.00
10314;DHT22;5202;49.138;10.090;2023-03-14T15:20:19;7.10;91.70
10314;DHT22;5202;49.138;10.090;2023-03-14T15:22:50;7.10;91.50
10314;DHT22;5202;49.138;10.090;2023-03-14T15:25:19;7.00;91.10
10314;DHT22;5202;49.138;10.090;2023-03-14T15:28:14;7.00;90.70
10314;DHT22;5202;49.138;10.090;2023-03-14T15:30:44;6.90;90.60
10314;DHT22;5202;49.138;10.090;2023-03-14T15:33:14;6.90;90.60
10314;DHT22;5202;49.138;10.090;2023-03-14T15:35:43;6.90;90.50
10314;DHT22;5202;49.138;10.090;2023-03-14T15:38:13;6.90;90.60
10314;DHT22;5202;49.138;10.090;2023-03-14T15:40:42;6.90;91.10
10314;DHT22;5202;49.138;10.090;2023-03-14T15:43:11;6.90;90.80
10314;DHT22;5202;49.138;10.090;2023-03-14T15:45:39;6.90;91.00
10314;DHT22;5202;49.138;10.090;2023-03-14T15:48:15;6.90;90.70
10314;DHT22;5202;49.138;10.090;2023-03-14T15:50:44;6.90;90.90
10314;DHT22;5202;49.138;10.090;2023-03-14T15:53:13;6.90;90.90
10314;DHT22;5202;49.138;10.090;2023-03-14T15:55:41;6.90;90.60
10314;DHT22;5202;49.138;10.090;2023-03-14T15:58:15;6.80;90.70
10314;DHT22;5202;49.138;10.090;2023-03-14T16:00:47;6.90;90.80
10314;DHT22;5202;49.138;10.090;2023-03-14T16:03:18;6.90;90.70
10314;DHT22;5202;49.138;10.090;2023-03-14T16:05:46;6.90;89.80
10314;DHT22;5202;49.138;10.090;2023-03-14T16:08:15;7.10;89.80
10314;DHT22;5202;49.138;10.090;2023-03-14T16:10:44;7.40;89.30
10314;DHT22;5202;49.138;10.090;2023-03-14T16:13:12;7.90;86.40
10314;DHT22;5202;49.138;10.090;2023-03-14T16:15:41;8.20;85.70
10314;DHT22;5202;49.138;10.090;2023-03-14T16:18:09;8.50;84.40
10314;DHT22;5202;49.138;10.090;2023-03-14T16:20:53;8.60;82.60
10314;DHT22;5202;49.138;10.090;2023-03-14T16:23:25;8.60;81.80
10314;DHT22;5202;49.138;10.090;2023-03-14T16:25:55;8.60;81.40
10314;DHT22;5202;49.138;10.090;2023-03-14T16:28:25;8.60;80.10
10314;DHT22;5202;49.138;10.090;2023-03-14T16:30:59;8.40;79.60
10314;DHT22;5202;49.138;10.090;2023-03-14T16:33:28;8.40;80.70
10314;DHT22;5202;49.138;10.090;2023-03-14T16:35:59;8.50;80.50